RUNWAY INFORMATION
Runway Length Width Elevation Displaced
Threshold
Heading | Runway Length Width Elevation Displaced
Threshold
Heading
05L 10000 ft 150 ft 212 ft 1401 ft 51 | 23R 10000 ft 150 ft 249 ft 600 ft 231
05R 9997 ft 150 ft 186 ft 604 ft 51 | 23L 9997 ft 150 ft 227 ft 604 ft 231

 AIRPORT FREQUENCIES
Type APP Name APP Frequency 135 MHZ
Type ATIS Name ATIS Frequency 128.175 MHZ
Type CLD Name CLNC DEL Frequency 121.7 MHZ
Type GND Name GND Frequency 121.85 MHZ
Type TWR Name TWR Frequency 118.625 MHZ

 AIRPORT NEAR NAVIGATION AIDS
Type NDB Name Manchester Frequency 428 KHZ
Type VOR-DME Name Manchester Frequency 113550 KHZ

 METAR AND TAF INFORMATION
METAR FOR EGCC
ADDS - METARS form results

(1828 UTC 25 February 2021)
Data provider http://aviationweather.gov/metar/data/
 
METAR text: EGCC 251820Z AUTO VRB03KT 9999 NCD 07/02 Q1030 NOSIG
Conditions at: EGCC (MANCHESTER INTL , GB) observed 1820 UTC 25 February 2021
Temperature: 7.0°C (45°F)
Dewpoint: 2.0°C (36°F) [RH = 70%]
Pressure (altimeter): 30.41 inches Hg (1030.0 mb)
Winds: variable direction winds at 3 MPH (3 knots; 1.5 m/s)
Visibility: 6 or more miles (10+ km)
Ceiling: at least 12,000 feet AGL
Clouds: sky clear below 12,000 feet AGL
Weather: no significant weather observed at this time

METAR text: EGCC 251750Z AUTO 28007KT 9999 NCD 07/02 Q1030
Conditions at: EGCC (MANCHESTER INTL , GB) observed 1750 UTC 25 February 2021
Temperature: 7.0°C (45°F)
Dewpoint: 2.0°C (36°F) [RH = 70%]
Pressure (altimeter): 30.41 inches Hg (1030.0 mb)
Winds: from the W (280 degrees) at 8 MPH (7 knots; 3.6 m/s)
Visibility: 6 or more miles (10+ km)
Ceiling: at least 12,000 feet AGL
Clouds: sky clear below 12,000 feet AGL
Weather: no significant weather observed at this time

Forecast for: EGCC (MANCHESTER INTL , GB)
Text: TAF EGCC 251655Z 2518/2624 27010KT 9999 SCT030
Forecast period: 1800 UTC 25 February 2021 to 0000 UTC 27 February 2021
Forecast type: FROM: standard forecast or significant change
Winds: from the W (270 degrees) at 12 MPH (10 knots; 5.1 m/s)
Visibility: 6 or more miles (10+ km)
Ceiling: at least 12,000 feet AGL
Clouds: scattered clouds at 3000 feet AGL
Weather: no significant weather forecast for this period
Text: BECMG 2518/2521 21004KT
Forecast period: 1800 UTC 25 February 2021 to 0000 UTC 27 February 2021
Forecast type: BECOMING: Conditions expected to become as follows by 2100 UTC 25 February 2021
Winds: from the SSW (210 degrees) at 5 MPH (4 knots; 2.1 m/s)
Visibility: 6 or more miles (10+ km)
Ceiling: at least 12,000 feet AGL
Clouds: scattered clouds at 3000 feet AGL
Weather: no significant weather forecast for this period
Text: PROB30 2603/2611 5000 BR
Forecast period: 0300 to 1100 UTC 26 February 2021
Forecast type: PROBABLE: 30 percent likelihood of the following during this time
Visibility: 3 miles (5 km)
Ceiling: unknown
Clouds: missing
Weather: BR  (mist)



© 2013 - 2021, FlightSimLog.org - Powered by Virtual Airlines Manager